Metars

EGJB - Guernsey Airport
Distance from station: SW 8km

Current
Mostly Cloudy
Mostly Cloudy
 Wind from SSE
Wind: SSE 21 mph , 33 km/h
Temperature: 6°C
Wind Chill: 1°C
Dew Point: 2°C
Humidity: 76%
Barometer: 1011 hPa
Clouds: Mostly Cloudy
Visibility: 6 miles , 10 km
Cloud details: Few Clouds 549 m
Partly Cloudy 1158 m
Mostly Cloudy 1463 m
2019/01/18 15:20 EGJB 181520Z 16018KT 9999 FEW018 SCT038 BKN048 06/02 Q1011
EGJA - Alderney Airport
Distance from station: NE 37km

Current
Clear
Clear
 Wind from SSE
Wind: SSE 22 mph , 35 km/h
Temperature: 6°C
Wind Chill: 1°C
Dew Point: 1°C
Humidity: 71%
Barometer: 1012 hPa
Summary: Clear
Visibility: greater than 7 miles , 10 km
2019/01/18 15:20 EGJA 181520Z 15019KT CAVOK 06/01 Q1012
EGJJ - Jersey Airport
Distance from station: SE 37km

Current
Few Clouds
Few Clouds
 Wind from SSE
Wind: SSE 21 mph , 33 km/h
Temperature: 6°C
Wind Chill: 1°C
Dew Point: 1°C
Humidity: 71%
Barometer: 1012 hPa
Clouds: Few Clouds
Visibility: 6 miles , 10 km
Cloud details: Few Clouds 1158 m
2019/01/18 15:20 EGJJ 181520Z 15018KT 9999 FEW038 06/01 Q1012